Disclaimer

Please do not use the information listed here in-flight or in-navigation, as they are not provided to us by the airports but are provided by volunteers, so they might be outdated.

Search


Regions


Airport information page

Radio informations:
Tower (TWR) - 118.8 MHz
Ground (GND) - 121.6 MHz
DEP - 119.05 MHz
Automatic Terminal Information Service (ATIS) - 127.8 MHz
Approach (APP) - 120.6 MHz

Airport informations:
Latitude: 33° 28' 46.00" N
Longitude: 131° 44' 14.00" E
Elevation: 19 feet - 6 meters
Operating hours: Remarks
Operating agency: Civil government, landing fees and diplomatic clearance may be required
Timezone: UTC+9
Fuel: Jet A, without icing inhibitor.

100/130 octane gasoline, leaded, MIL-L-5572F (GREEN)

80/87 octane gasoline, leaded, MIL-L-5572F (RED)

Runway information:
01/19 - 9840 x 150 feet< - >2999 x 46 meters

Recent METARs:
RJFO 190300Z 34011KT 9999 FEW020 BKN130 BKN160 16/07 Q1017
RJFO 190300Z 34011KT 9999 FEW020 BKN130 BKN160 16/07 Q1017
RJFO 190400Z 33006KT 9999 FEW030 BKN130 BKN140 16/07 Q1016

Airport on the map: